createdAt,value
2023-03-06T00:01:09.877Z,100026.00
2023-03-06T00:03:38.125Z,100019.81
2023-03-06T00:06:06.746Z,100014.00
2023-03-06T00:08:34.876Z,100011.28
2023-03-06T00:11:04.687Z,100009.09
2023-03-06T00:13:34.967Z,100011.59
2023-03-06T00:16:03.194Z,100006.69
2023-03-06T00:18:31.439Z,100003.06
2023-03-06T00:20:59.569Z,100001.56
2023-03-06T00:23:29.091Z,99988.09
2023-03-06T00:25:57.234Z,99987.75
2023-03-06T00:28:27.176Z,99990.16
2023-03-06T00:30:55.360Z,99989.94
2023-03-06T00:33:23.495Z,99987.94
2023-03-06T00:35:51.707Z,99990.69
2023-03-06T00:38:20.070Z,99994.13
2023-03-06T00:40:48.323Z,99978.34
2023-03-06T00:43:16.433Z,99980.06
2023-03-06T00:45:45.930Z,99969.81
2023-03-06T00:48:14.098Z,99967.38
2023-03-06T00:50:42.328Z,99967.38
2023-03-06T00:53:13.236Z,99959.13
2023-03-06T00:55:45.447Z,99952.03
2023-03-06T00:58:14.005Z,99949.63
2023-03-06T01:00:42.198Z,99945.13
2023-03-06T01:03:12.204Z,99940.78
2023-03-06T01:05:40.487Z,99944.00
2023-03-06T01:08:09.294Z,99941.22
2023-03-06T01:10:40.171Z,99938.31
2023-03-06T01:13:08.378Z,99927.00
2023-03-06T01:15:36.512Z,99924.91
2023-03-06T01:18:04.838Z,99917.19
2023-03-06T01:20:34.443Z,99912.97
2023-03-06T01:23:02.747Z,99906.84
2023-03-06T01:25:30.899Z,99902.22
2023-03-06T01:27:59.060Z,99901.56
2023-03-06T01:30:27.193Z,99897.09
2023-03-06T01:32:55.734Z,99895.59
2023-03-06T01:35:24.049Z,99893.38
2023-03-06T01:37:53.535Z,99888.47
2023-03-06T01:40:22.086Z,99871.00
2023-03-06T01:42:51.573Z,99872.88
2023-03-06T01:45:57.259Z,99883.13
2023-03-06T01:48:26.139Z,99884.59
2023-03-06T01:50:55.144Z,99852.41
2023-03-06T01:53:24.971Z,99855.84
2023-03-06T01:55:53.459Z,99846.53
2023-03-06T01:58:23.607Z,99843.91
2023-03-06T02:00:51.803Z,99848.44
2023-03-06T02:03:25.279Z,99850.47
2023-03-06T02:05:53.913Z,99844.59
2023-03-06T02:08:24.788Z,99838.09
2023-03-06T02:10:59.618Z,99835.06
2023-03-06T02:13:27.947Z,99828.63
2023-03-06T02:15:56.288Z,99825.88
2023-03-06T02:18:24.471Z,99820.63
2023-03-06T02:20:55.381Z,99810.59
2023-03-06T02:23:34.447Z,99808.50
2023-03-06T02:26:04.999Z,99799.91
2023-03-06T02:28:33.173Z,99803.03
2023-03-06T02:31:01.918Z,99799.28
2023-03-06T02:33:30.695Z,99789.34
2023-03-06T02:36:02.264Z,99780.19
2023-03-06T02:38:35.071Z,99777.84
2023-03-06T02:41:08.191Z,99781.75
2023-03-06T02:43:40.766Z,99786.56
2023-03-06T02:46:08.979Z,99779.88
2023-03-06T02:48:37.328Z,99776.09
2023-03-06T02:51:05.660Z,99779.59
2023-03-06T02:53:33.837Z,99783.44
2023-03-06T02:56:02.442Z,99778.47
2023-03-06T02:58:31.969Z,99768.22
2023-03-06T03:01:00.747Z,99765.56
2023-03-06T03:03:30.491Z,99765.94
2023-03-06T03:05:59.799Z,99760.72
2023-03-06T03:08:31.466Z,99757.38
2023-03-06T03:11:02.988Z,99761.13
2023-03-06T03:13:39.390Z,99748.53
2023-03-06T03:16:15.389Z,99746.66
2023-03-06T03:18:47.823Z,99735.75
2023-03-06T03:21:18.731Z,99729.28
2023-03-06T03:23:48.541Z,99731.97
2023-03-06T03:26:19.032Z,99743.66
2023-03-06T03:29:01.532Z,99738.91
2023-03-06T03:31:29.751Z,99732.91
2023-03-06T03:33:58.022Z,99732.25
2023-03-06T03:36:27.526Z,99724.25
2023-03-06T03:38:57.680Z,99711.09
2023-03-06T03:41:26.233Z,99713.16
2023-03-06T03:43:54.444Z,99725.78
2023-03-06T03:46:25.507Z,99735.41
2023-03-06T03:48:57.084Z,99726.31
2023-03-06T03:51:25.297Z,99713.78
2023-03-06T03:53:56.770Z,99718.59
2023-03-06T03:56:26.796Z,99708.13
2023-03-06T03:59:01.246Z,99698.25
2023-03-06T04:01:39.105Z,99700.19
2023-03-06T04:04:07.755Z,99699.41
2023-03-06T04:06:36.331Z,99697.34
2023-03-06T04:09:06.020Z,99688.72
2023-03-06T04:11:35.803Z,99697.50
2023-03-06T04:14:04.274Z,99696.84
2023-03-06T04:16:32.940Z,99690.78
2023-03-06T04:19:02.749Z,99692.84
2023-03-06T04:21:31.271Z,99691.16
2023-03-06T04:23:59.505Z,99686.34
2023-03-06T04:26:27.658Z,99681.53
2023-03-06T04:28:56.517Z,99698.44
2023-03-06T04:31:25.066Z,99688.22
2023-03-06T04:33:53.569Z,99688.88
2023-03-06T04:36:28.636Z,99685.63
2023-03-06T04:39:01.033Z,99686.41
2023-03-06T04:41:30.055Z,99688.03
2023-03-06T04:43:58.762Z,99691.88
2023-03-06T04:46:27.351Z,99695.63
2023-03-06T04:48:55.588Z,99694.13
2023-03-06T04:51:25.361Z,99701.34
2023-03-06T04:53:53.545Z,99704.03
2023-03-06T04:56:21.690Z,99704.13
2023-03-06T04:58:49.995Z,99703.53
2023-03-06T05:01:18.575Z,99705.69
2023-03-06T05:03:47.128Z,99713.63
2023-03-06T05:06:17.116Z,99710.94
2023-03-06T05:08:46.643Z,99714.31
2023-03-06T05:11:14.981Z,99713.88
2023-03-06T05:13:43.150Z,99718.13
2023-03-06T05:16:11.656Z,99716.88
2023-03-06T05:18:39.844Z,99721.75
2023-03-06T05:21:09.203Z,99722.69
2023-03-06T05:23:39.347Z,99731.38
2023-03-06T05:26:10.936Z,99732.63
2023-03-06T05:28:39.283Z,99739.72
2023-03-06T05:31:08.387Z,99738.00
2023-03-06T05:33:37.232Z,99738.94
2023-03-06T05:36:06.147Z,99748.59
2023-03-06T05:38:34.367Z,99749.66
2023-03-06T05:41:02.556Z,99746.16
2023-03-06T05:43:32.241Z,99749.16
2023-03-06T05:46:05.240Z,99745.19
2023-03-06T05:48:34.144Z,99760.00
2023-03-06T05:51:03.552Z,99753.34
2023-03-06T05:53:32.576Z,99749.94
2023-03-06T05:56:03.323Z,99755.28
2023-03-06T05:58:34.503Z,99769.19
2023-03-06T06:01:10.369Z,99759.59
2023-03-06T06:03:38.602Z,99763.16
2023-03-06T06:06:07.992Z,99757.19
2023-03-06T06:08:36.329Z,99766.22
2023-03-06T06:11:05.295Z,99774.00
2023-03-06T06:14:02.160Z,99772.50
2023-03-06T06:16:30.431Z,99773.91
2023-03-06T06:18:58.738Z,99781.63
2023-03-06T06:21:26.876Z,99775.94
2023-03-06T06:23:54.987Z,99777.53
2023-03-06T06:26:23.188Z,99787.84
2023-03-06T06:28:51.336Z,99776.41
2023-03-06T06:31:20.869Z,99780.59
2023-03-06T06:33:49.039Z,99776.97
2023-03-06T06:36:18.627Z,99787.88
2023-03-06T06:38:46.824Z,99770.44
2023-03-06T06:44:08.529Z,99788.31
2023-03-06T06:49:26.905Z,99781.50
2023-03-06T06:51:55.050Z,99784.09
2023-03-06T06:54:23.240Z,99784.88
2023-03-06T06:56:51.471Z,99783.22
2023-03-06T06:59:19.753Z,99786.34
2023-03-06T07:01:49.258Z,99786.38
2023-03-06T07:04:18.104Z,99786.97
2023-03-06T07:06:46.519Z,99782.31
2023-03-06T07:09:15.249Z,99780.34
2023-03-06T07:11:43.403Z,99782.44
2023-03-06T07:14:11.534Z,99781.63
2023-03-06T07:16:39.755Z,99771.34
2023-03-06T07:19:09.310Z,99777.28
2023-03-06T07:21:37.454Z,99786.16
2023-03-06T07:24:06.088Z,99780.81
2023-03-06T07:26:35.061Z,99787.31
2023-03-06T07:29:03.680Z,99791.31
2023-03-06T07:31:32.001Z,99789.25
2023-03-06T07:34:01.902Z,99788.47
2023-03-06T07:36:33.255Z,99789.56
2023-03-06T07:39:01.492Z,99798.19
2023-03-06T07:41:29.636Z,99799.63
2023-03-06T07:43:57.819Z,99804.28
2023-03-06T07:46:26.193Z,99799.69
2023-03-06T07:48:54.526Z,99798.66
2023-03-06T07:51:23.077Z,99795.94
2023-03-06T07:53:52.562Z,99797.41
2023-03-06T07:56:20.755Z,99796.75
2023-03-06T07:58:49.407Z,99802.75
2023-03-06T08:01:19.912Z,99809.72
2023-03-06T08:03:50.099Z,99805.41
2023-03-06T08:06:20.027Z,99795.66
2023-03-06T08:08:49.472Z,99799.22
2023-03-06T08:11:21.094Z,99796.78
2023-03-06T08:13:49.852Z,99799.81
2023-03-06T08:16:20.521Z,99790.25
2023-03-06T08:18:48.748Z,99800.03
2023-03-06T08:21:18.518Z,99793.78
2023-03-06T08:23:47.371Z,99792.78
2023-03-06T08:26:18.062Z,99803.22
2023-03-06T08:28:47.825Z,99790.53
2023-03-06T08:31:25.399Z,99796.16
2023-03-06T08:33:54.506Z,99790.81
2023-03-06T08:36:22.804Z,99791.25
2023-03-06T08:38:51.018Z,99791.81
2023-03-06T08:41:20.325Z,99794.75
2023-03-06T08:43:51.354Z,99789.50
2023-03-06T08:46:20.439Z,99793.66
2023-03-06T08:48:49.006Z,99789.28
2023-03-06T08:51:18.531Z,99783.38
2023-03-06T08:53:47.396Z,99780.44
2023-03-06T08:56:17.711Z,99778.06
2023-03-06T08:58:45.950Z,99786.72
2023-03-06T09:01:16.431Z,99780.72
2023-03-06T09:03:44.831Z,99788.47
2023-03-06T09:06:14.457Z,99781.38
2023-03-06T09:08:44.472Z,99795.34
2023-03-06T09:11:13.438Z,99790.31
2023-03-06T09:13:41.677Z,99783.84
2023-03-06T09:16:10.628Z,99790.69
2023-03-06T09:18:40.683Z,99792.38
2023-03-06T09:21:09.369Z,99788.72
2023-03-06T09:23:39.944Z,99784.81
2023-03-06T09:26:08.943Z,99788.13
2023-03-06T09:28:39.033Z,99794.13
2023-03-06T09:31:11.713Z,99790.16
2023-03-06T09:33:41.684Z,99793.38
2023-03-06T09:36:16.103Z,99790.44
2023-03-06T09:38:45.804Z,99795.94
2023-03-06T09:41:24.396Z,99799.94
2023-03-06T09:43:55.195Z,99797.69
2023-03-06T09:46:29.388Z,99799.13
2023-03-06T09:49:15.774Z,99799.75
2023-03-06T09:51:55.992Z,99805.03
2023-03-06T09:54:35.404Z,99802.94
2023-03-06T09:57:03.992Z,99805.38
2023-03-06T09:59:33.032Z,99803.25
2023-03-06T10:02:09.327Z,99807.19
2023-03-06T10:04:42.373Z,99801.56
2023-03-06T10:07:15.473Z,99800.91
2023-03-06T10:09:49.078Z,99802.84
2023-03-06T10:12:25.320Z,99808.56
2023-03-06T10:15:02.815Z,99808.06
2023-03-06T10:17:36.347Z,99801.72
2023-03-06T10:20:22.036Z,99799.34
2023-03-06T10:23:20.824Z,99795.31
2023-03-06T10:25:58.131Z,99804.97
2023-03-06T10:28:31.525Z,99801.72
2023-03-06T10:31:07.603Z,99802.56
2023-03-06T10:33:48.650Z,99794.50
2023-03-06T10:36:20.320Z,99798.00
2023-03-06T10:38:49.285Z,99805.81
2023-03-06T10:41:25.999Z,99805.53
2023-03-06T10:44:21.742Z,99798.13
2023-03-06T10:46:52.503Z,99798.09
2023-03-06T10:49:30.760Z,99809.09
2023-03-06T10:52:03.193Z,99808.97
2023-03-06T10:54:33.542Z,99809.53
2023-03-06T10:57:21.497Z,99802.66
2023-03-06T10:59:54.704Z,99808.81
2023-03-06T11:02:29.204Z,99803.47
2023-03-06T11:04:59.184Z,99812.00
2023-03-06T11:07:29.929Z,99808.72
2023-03-06T11:10:12.929Z,99808.81
2023-03-06T11:12:42.095Z,99802.63
2023-03-06T11:15:18.614Z,99812.25
2023-03-06T11:17:53.297Z,99813.03
2023-03-06T11:20:25.047Z,99802.25
2023-03-06T11:22:57.762Z,99800.81
2023-03-06T11:25:30.884Z,99803.56
2023-03-06T11:28:03.856Z,99799.59
2023-03-06T11:30:38.844Z,99796.19
2023-03-06T11:33:16.571Z,99789.84
2023-03-06T11:35:52.366Z,99796.06
2023-03-06T11:38:26.906Z,99790.44
2023-03-06T11:40:58.795Z,99793.97
2023-03-06T11:43:36.214Z,99788.22
2023-03-06T11:46:11.675Z,99788.88
2023-03-06T11:48:47.331Z,99786.66
2023-03-06T11:51:20.778Z,99788.03
2023-03-06T11:53:50.384Z,99783.75
2023-03-06T11:56:32.023Z,99776.78
2023-03-06T11:59:34.098Z,99784.63
2023-03-06T12:02:15.939Z,99783.38
2023-03-06T12:04:56.925Z,99781.03
2023-03-06T12:07:29.987Z,99773.25
2023-03-06T12:10:10.651Z,99772.47
2023-03-06T12:13:05.448Z,99770.91
2023-03-06T12:15:47.624Z,99760.06
2023-03-06T12:18:30.773Z,99756.50
2023-03-06T12:21:08.118Z,99767.97
2023-03-06T12:24:00.147Z,99769.28
2023-03-06T12:26:40.241Z,99767.69
2023-03-06T12:29:22.225Z,99769.25
2023-03-06T12:32:01.368Z,99769.69
2023-03-06T12:34:47.728Z,99766.72
2023-03-06T12:37:26.490Z,99762.75
2023-03-06T12:40:16.542Z,99755.66
2023-03-06T12:43:06.541Z,99756.28
2023-03-06T12:45:35.357Z,99756.28
2023-03-06T12:48:05.476Z,99757.78
2023-03-06T12:50:37.006Z,99773.00
2023-03-06T12:53:07.747Z,99773.94
2023-03-06T12:55:40.684Z,99756.63
2023-03-06T12:58:36.330Z,99760.16
2023-03-06T13:01:06.220Z,99764.94
2023-03-06T13:03:56.931Z,99765.03
2023-03-06T13:06:49.755Z,99774.31
2023-03-06T13:09:28.289Z,99759.25
2023-03-06T13:12:28.729Z,99758.84
2023-03-06T13:15:00.702Z,99764.25
2023-03-06T13:17:39.252Z,99762.47
2023-03-06T13:20:35.176Z,99761.53
2023-03-06T13:23:43.064Z,99766.34
2023-03-06T13:26:32.900Z,99778.34
2023-03-06T13:29:01.055Z,99777.59
2023-03-06T13:32:07.111Z,99782.25
2023-03-06T13:34:38.786Z,99781.78
2023-03-06T13:37:39.031Z,99782.56
2023-03-06T13:40:27.181Z,99772.22
2023-03-06T13:43:16.260Z,99771.75
2023-03-06T13:45:45.830Z,99773.38
2023-03-06T13:48:44.631Z,99778.63
2023-03-06T13:51:25.154Z,99775.13
2023-03-06T13:54:10.711Z,99775.53
2023-03-06T13:57:10.029Z,99763.84
2023-03-06T14:00:09.525Z,99770.00
2023-03-06T14:02:54.763Z,99769.06
2023-03-06T14:05:24.052Z,99778.50
2023-03-06T14:08:10.227Z,99773.91
2023-03-06T14:10:39.753Z,99770.19
2023-03-06T14:13:15.116Z,99757.84
2023-03-06T14:15:46.350Z,99748.84
2023-03-06T14:18:21.364Z,99739.22
2023-03-06T14:20:54.718Z,99747.78
2023-03-06T14:23:35.279Z,99752.25
2023-03-06T14:26:15.485Z,99755.94
2023-03-06T14:28:44.819Z,99750.00
2023-03-06T14:31:18.337Z,99758.59
2023-03-06T14:33:52.587Z,99761.00
2023-03-06T14:36:22.923Z,99760.16
2023-03-06T14:38:54.524Z,99766.47
2023-03-06T14:41:28.866Z,99762.69
2023-03-06T14:44:16.631Z,99763.72
2023-03-06T14:46:45.486Z,99771.47
2023-03-06T14:49:15.838Z,99771.13
2023-03-06T14:51:46.266Z,99776.44
2023-03-06T14:54:19.948Z,99770.41
2023-03-06T14:56:53.070Z,99767.50
2023-03-06T14:59:26.194Z,99759.22
2023-03-06T15:01:58.922Z,99761.38
2023-03-06T15:04:32.906Z,99765.25
2023-03-06T15:07:01.192Z,99761.94
2023-03-06T15:09:32.606Z,99753.38
2023-03-06T15:12:03.066Z,99756.75
2023-03-06T15:14:34.551Z,99756.75
2023-03-06T15:17:26.185Z,99749.94
2023-03-06T15:19:55.865Z,99753.63
2023-03-06T15:22:28.900Z,99753.78
2023-03-06T15:25:24.313Z,99757.28
2023-03-06T15:27:54.245Z,99758.19
2023-03-06T15:30:28.427Z,99751.38
2023-03-06T15:33:11.452Z,99758.34
2023-03-06T15:35:39.985Z,99761.28
2023-03-06T15:38:24.843Z,99759.59
2023-03-06T15:40:59.057Z,99760.03
2023-03-06T15:43:29.181Z,99772.16
2023-03-06T15:46:00.668Z,99769.34
2023-03-06T15:48:29.310Z,99765.41
2023-03-06T15:50:58.107Z,99766.19
2023-03-06T15:53:26.317Z,99756.88
2023-03-06T15:55:54.614Z,99762.47
2023-03-06T15:58:26.819Z,99768.50
2023-03-06T16:00:55.062Z,99768.25
2023-03-06T16:03:23.313Z,99765.25
2023-03-06T16:05:51.775Z,99761.31
2023-03-06T16:08:19.889Z,99758.44
2023-03-06T16:10:48.681Z,99751.06
2023-03-06T16:13:20.265Z,99759.13
2023-03-06T16:15:51.261Z,99760.25
2023-03-06T16:18:20.007Z,99767.13
2023-03-06T16:20:48.900Z,99768.47
2023-03-06T16:23:17.047Z,99770.78
2023-03-06T16:25:49.825Z,99772.81
2023-03-06T16:28:18.479Z,99768.72
2023-03-06T16:30:46.686Z,99777.84
2023-03-06T16:33:16.260Z,99777.88
2023-03-06T16:35:46.707Z,99775.25
2023-03-06T16:38:16.246Z,99774.84
2023-03-06T16:40:44.626Z,99779.69
2023-03-06T16:43:13.544Z,99779.16
2023-03-06T16:45:42.676Z,99770.03
2023-03-06T16:48:17.667Z,99784.47
2023-03-06T16:50:45.909Z,99798.84
2023-03-06T16:53:15.346Z,99793.41
2023-03-06T16:55:43.731Z,99789.69
2023-03-06T16:58:12.092Z,99796.78
2023-03-06T17:00:40.345Z,99799.69
2023-03-06T17:03:08.521Z,99795.38
2023-03-06T17:05:38.628Z,99792.31
2023-03-06T17:08:06.859Z,99792.59
2023-03-06T17:10:35.056Z,99806.78
2023-03-06T17:13:03.381Z,99804.56
2023-03-06T17:15:31.684Z,99799.78
2023-03-06T17:17:59.839Z,99809.41
2023-03-06T17:20:28.028Z,99803.31
2023-03-06T17:22:57.536Z,99803.63
2023-03-06T17:25:25.710Z,99800.53
2023-03-06T17:27:53.866Z,99798.50
2023-03-06T17:30:22.078Z,99800.75
2023-03-06T17:32:50.207Z,99793.72
2023-03-06T17:35:18.337Z,99804.38
2023-03-06T17:37:46.457Z,99808.59
2023-03-06T17:40:16.594Z,99800.38
2023-03-06T17:42:44.729Z,99802.13
2023-03-06T17:45:13.825Z,99804.69
2023-03-06T17:47:42.019Z,99803.88
2023-03-06T17:50:11.572Z,99810.53
2023-03-06T17:52:39.800Z,99804.66
2023-03-06T17:55:08.938Z,99801.34
2023-03-06T17:57:38.421Z,99809.25
2023-03-06T18:00:08.241Z,99802.88
2023-03-06T18:02:40.236Z,99805.44
2023-03-06T18:05:09.826Z,99803.94
2023-03-06T18:07:38.140Z,99798.72
2023-03-06T18:10:06.868Z,99803.13
2023-03-06T18:12:35.037Z,99801.38
2023-03-06T18:15:05.142Z,99799.03
2023-03-06T18:17:33.778Z,99794.50
2023-03-06T18:20:01.959Z,99803.09
2023-03-06T18:22:30.215Z,99801.53
2023-03-06T18:24:59.393Z,99805.69
2023-03-06T18:27:27.560Z,99802.47
2023-03-06T18:29:55.779Z,99802.47
2023-03-06T18:32:25.334Z,99799.88
2023-03-06T18:34:55.061Z,99808.25
2023-03-06T18:37:23.803Z,99804.16
2023-03-06T18:39:52.010Z,99803.97
2023-03-06T18:42:20.283Z,99802.19
2023-03-06T18:44:51.304Z,99801.53
2023-03-06T18:47:19.583Z,99801.47
2023-03-06T18:49:49.192Z,99804.09
2023-03-06T18:52:17.398Z,99804.53
2023-03-06T18:54:45.740Z,99795.59
2023-03-06T18:57:13.888Z,99799.75
2023-03-06T18:59:42.052Z,99799.91
2023-03-06T19:02:12.250Z,99799.06
2023-03-06T19:04:40.625Z,99798.44
2023-03-06T19:07:10.100Z,99797.38
2023-03-06T19:09:38.269Z,99790.56
2023-03-06T19:12:07.271Z,99799.34
2023-03-06T19:14:36.325Z,99799.53
2023-03-06T19:17:04.573Z,99795.13
2023-03-06T19:19:32.760Z,99795.91
2023-03-06T19:22:01.968Z,99795.13
2023-03-06T19:24:31.882Z,99798.00
2023-03-06T19:27:00.030Z,99804.03
2023-03-06T19:29:28.475Z,99798.66
2023-03-06T19:31:58.811Z,99795.41
2023-03-06T19:34:27.074Z,99800.72
2023-03-06T19:36:55.251Z,99797.59
2023-03-06T19:39:24.355Z,99787.75
2023-03-06T19:41:54.156Z,99787.88
2023-03-06T19:44:23.213Z,99786.88
2023-03-06T19:46:51.418Z,99785.38
2023-03-06T19:49:22.138Z,99783.66
2023-03-06T19:51:50.339Z,99786.53
2023-03-06T19:54:23.241Z,99790.94
2023-03-06T19:56:51.631Z,99784.09
2023-03-06T19:59:21.556Z,99793.56
2023-03-06T20:01:50.210Z,99786.78
2023-03-06T20:04:18.698Z,99781.56
2023-03-06T20:06:48.140Z,99783.63
2023-03-06T20:09:16.281Z,99782.84
2023-03-06T20:11:44.566Z,99784.31
2023-03-06T20:14:13.990Z,99788.88
2023-03-06T20:16:43.903Z,99776.53
2023-03-06T20:19:12.736Z,99769.19
2023-03-06T20:21:40.977Z,99768.06
2023-03-06T20:24:16.573Z,99771.53
2023-03-06T20:26:45.759Z,99760.31
2023-03-06T20:29:14.476Z,99771.06
2023-03-06T20:31:44.170Z,99769.31
2023-03-06T20:34:13.848Z,99763.22
2023-03-06T20:36:42.024Z,99757.28
2023-03-06T20:39:13.859Z,99762.38
2023-03-06T20:41:42.409Z,99767.66
2023-03-06T20:44:14.250Z,99763.22
2023-03-06T20:46:43.845Z,99764.84
2023-03-06T20:49:12.859Z,99767.59
2023-03-06T20:51:41.783Z,99766.91
2023-03-06T20:54:13.416Z,99759.03
2023-03-06T20:56:44.642Z,99756.78
2023-03-06T20:59:13.944Z,99755.81
2023-03-06T21:01:45.126Z,99751.06
2023-03-06T21:04:14.878Z,99752.97
2023-03-06T21:06:47.193Z,99739.97
2023-03-06T21:09:17.372Z,99746.91
2023-03-06T21:11:45.803Z,99753.22
2023-03-06T21:14:14.353Z,99747.78
2023-03-06T21:16:44.486Z,99744.72
2023-03-06T21:19:12.724Z,99739.16
2023-03-06T21:21:40.983Z,99746.16
2023-03-06T21:24:09.644Z,99741.75
2023-03-06T21:26:38.089Z,99730.47
2023-03-06T21:29:06.885Z,99737.50
2023-03-06T21:31:35.084Z,99726.31
2023-03-06T21:34:06.241Z,99737.53
2023-03-06T21:36:35.119Z,99728.03
2023-03-06T21:39:06.161Z,99723.06
2023-03-06T21:41:35.231Z,99718.06
2023-03-06T21:44:05.586Z,99713.81
2023-03-06T21:46:34.901Z,99712.13
2023-03-06T21:49:05.284Z,99709.69
2023-03-06T21:51:33.492Z,99708.97
2023-03-06T21:54:02.107Z,99703.59
2023-03-06T21:56:30.356Z,99705.63
2023-03-06T21:58:59.660Z,99708.28
2023-03-06T22:01:29.640Z,99700.50
2023-03-06T22:03:58.729Z,99700.44
2023-03-06T22:06:29.856Z,99705.78
2023-03-06T22:08:59.591Z,99705.63
2023-03-06T22:11:31.187Z,99703.25
2023-03-06T22:14:00.069Z,99691.13
2023-03-06T22:16:28.459Z,99693.00
2023-03-06T22:18:56.861Z,99685.06
2023-03-06T22:21:25.247Z,99683.38
2023-03-06T22:23:57.240Z,99682.16
2023-03-06T22:26:26.220Z,99691.34
2023-03-06T22:28:55.056Z,99685.94
2023-03-06T22:31:25.580Z,99678.88
2023-03-06T22:33:54.702Z,99678.81
2023-03-06T22:36:24.472Z,99675.38
2023-03-06T22:38:56.981Z,99685.81
2023-03-06T22:41:26.743Z,99678.84
2023-03-06T22:43:57.387Z,99671.72
2023-03-06T22:46:26.083Z,99680.66
2023-03-06T22:48:56.466Z,99667.06
2023-03-06T22:51:24.691Z,99667.22
2023-03-06T22:53:53.391Z,99662.69
2023-03-06T22:56:23.330Z,99668.91
2023-03-06T22:58:52.014Z,99666.66
2023-03-06T23:01:21.677Z,99672.16
2023-03-06T23:03:51.698Z,99673.50
2023-03-06T23:06:22.416Z,99669.09
2023-03-06T23:08:53.388Z,99658.03
2023-03-06T23:11:24.093Z,99656.56
2023-03-06T23:14:12.385Z,99652.63
2023-03-06T23:16:58.894Z,99653.78
2023-03-06T23:19:45.737Z,99640.78
2023-03-06T23:22:32.443Z,99639.84
2023-03-06T23:25:19.771Z,99645.97
2023-03-06T23:27:49.529Z,99632.09
2023-03-06T23:30:18.057Z,99637.81
2023-03-06T23:32:46.225Z,99634.34
2023-03-06T23:35:14.574Z,99632.81
2023-03-06T23:37:42.726Z,99631.34
2023-03-06T23:40:12.095Z,99628.69
2023-03-06T23:42:40.598Z,99627.13
2023-03-06T23:45:11.731Z,99630.59
2023-03-06T23:47:39.941Z,99623.88
2023-03-06T23:50:08.814Z,99629.44
2023-03-06T23:52:36.982Z,99626.44
2023-03-06T23:55:05.795Z,99625.16
2023-03-06T23:57:34.006Z,99618.69
